Time;durP1;ratioP1;P1;durP2;ratioP2;P2;SDS_P1;SDS_P2;PMS_P1;PMS_P2;Temp;Humidity;BMP_temperature;BMP_pressure;BME280_temperature;BME280_humidity;BME280_pressure;Samples;Min_cycle;Max_cycle;Signal;HPM_P1;HPM_P2
2023/07/14 00:00:24;;;;;;;3.25;0.90;;;20.10;86.10;;;;;;5071539;28;20024;-81
2023/07/14 00:02:52;;;;;;;2.90;0.98;;;20.20;86.20;;;;;;5072151;28;20028;-80
2023/07/14 00:05:26;;;;;;;1.67;0.90;;;20.10;86.30;;;;;;5071981;28;20055;-80
2023/07/14 00:07:54;;;;;;;2.13;1.10;;;20.10;86.70;;;;;;5072397;28;20047;-80
2023/07/14 00:10:31;;;;;;;2.72;1.17;;;20.00;87.40;;;;;;5060005;28;20016;-80
2023/07/14 00:12:58;;;;;;;5.85;1.00;;;19.90;88.00;;;;;;5072252;28;20060;-82
2023/07/14 00:15:24;;;;;;;2.75;1.20;;;19.80;88.40;;;;;;5071675;28;20017;-82
2023/07/14 00:17:53;;;;;;;2.55;0.90;;;19.70;88.70;;;;;;5072232;28;20024;-81
2023/07/14 00:20:19;;;;;;;2.08;1.08;;;19.70;89.20;;;;;;5071956;28;20043;-81
2023/07/14 00:22:44;;;;;;;3.05;1.00;;;19.70;89.50;;;;;;5075545;28;20442;-81
2023/07/14 00:25:13;;;;;;;1.92;0.90;;;19.70;89.50;;;;;;5076331;28;20033;-80
2023/07/14 00:27:39;;;;;;;2.15;0.98;;;19.70;89.70;;;;;;5077523;28;20032;-81
2023/07/14 00:30:14;;;;;;;4.35;0.98;;;19.70;89.60;;;;;;5076985;28;20016;-80
2023/07/14 00:32:40;;;;;;;4.65;1.00;;;19.70;90.00;;;;;;5077360;28;20127;-80
2023/07/14 00:35:26;;;;;;;4.80;1.25;;;19.70;90.00;;;;;;5077216;28;20064;-80
2023/07/14 00:37:54;;;;;;;1.45;0.90;;;19.60;90.20;;;;;;5076328;28;20111;-84
2023/07/14 00:40:41;;;;;;;1.13;1.00;;;19.60;90.30;;;;;;5056838;28;20465;-82
2023/07/14 00:43:15;;;;;;;4.00;1.13;;;19.60;90.20;;;;;;5089275;28;20024;-80
2023/07/14 00:45:41;;;;;;;2.30;0.93;;;19.60;90.40;;;;;;5060154;28;20043;-83
2023/07/14 00:48:12;;;;;;;4.30;1.10;;;19.50;90.50;;;;;;5076817;28;20025;-79
2023/07/14 00:51:00;;;;;;;3.40;1.00;;;19.50;90.70;;;;;;5076924;28;20031;-83
2023/07/14 00:53:29;;;;;;;3.40;1.00;;;19.50;90.80;;;;;;5074909;28;20033;-83
2023/07/14 00:56:10;;;;;;;2.08;1.10;;;19.40;90.90;;;;;;5075648;28;20077;-84
2023/07/14 00:58:37;;;;;;;2.38;1.20;;;19.40;91.00;;;;;;5074895;28;20199;-83
2023/07/14 01:01:02;;;;;;;1.65;0.75;;;19.40;91.10;;;;;;5075593;28;20059;-84
2023/07/14 01:03:29;;;;;;;1.92;1.20;;;19.30;91.20;;;;;;5076578;28;20024;-83
2023/07/14 01:05:56;;;;;;;5.13;1.17;;;19.30;91.40;;;;;;5075864;28;20024;-85
2023/07/14 01:08:23;;;;;;;2.10;0.93;;;19.30;91.50;;;;;;5080177;28;20153;-85
2023/07/14 01:10:49;;;;;;;2.60;1.00;;;19.30;91.60;;;;;;5096313;28;20024;-85
2023/07/14 01:13:16;;;;;;;1.23;1.00;;;19.30;91.60;;;;;;5095706;28;20488;-83
2023/07/14 01:15:42;;;;;;;2.05;1.00;;;19.30;91.80;;;;;;5090846;28;20017;-84
2023/07/14 01:18:10;;;;;;;2.50;1.00;;;19.20;92.10;;;;;;5076748;28;20027;-83
2023/07/14 01:20:38;;;;;;;1.95;1.10;;;19.20;92.20;;;;;;5076482;28;20032;-82
2023/07/14 01:23:41;;;;;;;5.63;1.17;;;19.20;92.20;;;;;;5075792;28;20048;-81
2023/07/14 01:26:33;;;;;;;3.90;0.98;;;19.10;92.10;;;;;;5064382;28;20069;-81
2023/07/14 01:28:59;;;;;;;2.75;0.95;;;19.20;92.10;;;;;;5072264;28;20041;-81
2023/07/14 01:31:25;;;;;;;1.92;0.93;;;19.20;92.10;;;;;;5074775;28;20054;-82
2023/07/14 01:33:55;;;;;;;2.17;1.20;;;19.20;92.20;;;;;;5073756;28;20100;-82
2023/07/14 01:36:23;;;;;;;1.85;1.13;;;19.20;92.20;;;;;;5074519;28;20369;-81
2023/07/14 01:38:48;;;;;;;2.55;1.20;;;19.10;92.40;;;;;;5080500;28;20020;-81
2023/07/14 01:41:15;;;;;;;2.08;1.00;;;19.00;92.90;;;;;;5078517;28;20023;-80
2023/07/14 01:43:42;;;;;;;3.35;1.15;;;19.00;93.00;;;;;;5076197;28;20433;-81
2023/07/14 01:46:14;;;;;;;2.42;1.10;;;18.90;93.10;;;;;;5075890;28;20462;-82
2023/07/14 01:49:20;;;;;;;6.00;1.13;;;18.80;93.40;;;;;;5074706;28;20016;-81
2023/07/14 01:51:48;;;;;;;3.08;1.10;;;18.90;93.40;;;;;;5071714;28;20040;-81
2023/07/14 01:54:33;;;;;;;4.35;1.20;;;18.90;93.40;;;;;;5073379;28;20028;-81
2023/07/14 01:57:01;;;;;;;2.42;0.98;;;18.90;93.80;;;;;;5057443;28;20115;-82
2023/07/14 01:59:32;;;;;;;2.22;0.93;;;18.90;93.70;;;;;;5054737;28;20462;-81
2023/07/14 02:02:00;;;;;;;2.22;1.00;;;18.90;93.80;;;;;;5059340;28;20029;-81
2023/07/14 02:04:29;;;;;;;1.88;1.20;;;18.90;93.90;;;;;;5074164;28;20051;-81
2023/07/14 02:06:56;;;;;;;4.18;1.20;;;18.90;93.80;;;;;;5074409;28;20024;-82
2023/07/14 02:09:23;;;;;;;3.97;0.90;;;18.70;94.10;;;;;;5073962;28;20048;-83
2023/07/14 02:11:53;;;;;;;4.32;1.10;;;18.60;94.50;;;;;;5075350;28;20460;-82
2023/07/14 02:14:21;;;;;;;2.42;1.20;;;18.50;94.70;;;;;;5073927;28;20021;-80
2023/07/14 02:16:48;;;;;;;2.85;1.17;;;18.50;94.80;;;;;;5075300;28;20055;-81
2023/07/14 02:19:24;;;;;;;2.40;1.25;;;18.30;95.10;;;;;;5072171;28;20330;-81
2023/07/14 02:21:51;;;;;;;2.35;0.90;;;18.40;95.30;;;;;;5074264;28;20375;-80
2023/07/14 02:24:20;;;;;;;1.73;1.00;;;18.40;95.60;;;;;;5075165;28;20024;-81
2023/07/14 02:26:51;;;;;;;1.75;1.20;;;18.30;95.60;;;;;;5074219;28;20050;-81
2023/07/14 02:29:16;;;;;;;1.92;0.88;;;18.30;95.90;;;;;;5073914;28;20029;-81
2023/07/14 02:31:57;;;;;;;3.22;1.60;;;18.30;95.80;;;;;;5074236;28;20500;-81
2023/07/14 02:34:26;;;;;;;1.90;1.00;;;18.30;96.10;;;;;;5073779;28;20027;-81
2023/07/14 02:37:01;;;;;;;3.25;1.10;;;18.20;96.20;;;;;;5074291;28;20020;-81
2023/07/14 02:39:34;;;;;;;3.72;1.23;;;18.20;96.50;;;;;;5073529;28;20025;-82
2023/07/14 02:42:00;;;;;;;2.25;1.20;;;18.10;96.70;;;;;;5075347;28;20028;-81
2023/07/14 02:44:37;;;;;;;1.48;1.00;;;18.10;96.70;;;;;;5073311;28;20028;-81
2023/07/14 02:47:15;;;;;;;1.77;0.95;;;18.20;96.60;;;;;;5075330;28;20511;-81
2023/07/14 02:49:41;;;;;;;3.53;1.00;;;18.00;96.50;;;;;;5074928;28;20017;-81
2023/07/14 02:52:07;;;;;;;3.33;1.25;;;18.00;96.70;;;;;;5074968;28;20099;-81
2023/07/14 02:54:32;;;;;;;4.25;1.38;;;17.90;97.10;;;;;;5073392;28;20058;-81
2023/07/14 02:56:58;;;;;;;2.80;0.98;;;17.90;96.90;;;;;;5073556;28;20035;-81
2023/07/14 02:59:24;;;;;;;2.65;1.30;;;17.90;96.90;;;;;;5073794;28;20020;-81
2023/07/14 03:01:49;;;;;;;2.95;1.10;;;18.00;96.90;;;;;;5073358;28;20460;-81
2023/07/14 03:04:15;;;;;;;3.35;1.15;;;18.00;96.90;;;;;;5073780;28;20021;-81
2023/07/14 03:06:41;;;;;;;3.33;1.10;;;18.00;96.70;;;;;;5073490;28;20023;-81
2023/07/14 03:09:07;;;;;;;3.03;1.02;;;17.90;96.80;;;;;;5073629;28;20021;-81
2023/07/14 03:11:32;;;;;;;2.97;1.30;;;17.90;97.00;;;;;;5074057;28;20025;-81
2023/07/14 03:13:58;;;;;;;2.13;1.10;;;17.80;97.10;;;;;;5074585;28;20021;-82
2023/07/14 03:16:23;;;;;;;2.60;1.20;;;17.80;97.20;;;;;;5074087;28;20363;-81
2023/07/14 03:18:49;;;;;;;2.15;1.27;;;17.80;97.00;;;;;;5073072;28;20070;-81
2023/07/14 03:21:15;;;;;;;2.10;1.00;;;17.80;97.10;;;;;;5073282;28;20031;-81
2023/07/14 03:23:40;;;;;;;2.63;1.00;;;17.80;97.20;;;;;;5072907;28;20024;-81
2023/07/14 03:26:08;;;;;;;2.42;1.05;;;17.80;97.10;;;;;;5073225;28;20122;-81
2023/07/14 03:28:35;;;;;;;4.57;1.30;;;17.80;97.20;;;;;;5073927;28;20472;-81
2023/07/14 03:31:01;;;;;;;2.10;1.00;;;17.90;97.20;;;;;;5072994;28;20023;-81
2023/07/14 03:33:28;;;;;;;2.40;1.05;;;17.90;97.10;;;;;;5072501;28;20119;-81
2023/07/14 03:35:54;;;;;;;2.33;1.17;;;18.00;97.10;;;;;;5073048;28;20058;-81
2023/07/14 03:38:19;;;;;;;3.58;1.05;;;18.00;97.20;;;;;;5072640;28;20024;-81
2023/07/14 03:40:45;;;;;;;1.92;1.00;;;18.00;97.00;;;;;;5072946;28;20112;-81
2023/07/14 03:43:10;;;;;;;2.88;1.40;;;18.10;97.00;;;;;;5072988;28;20028;-82
2023/07/14 03:45:36;;;;;;;3.92;1.25;;;18.10;97.00;;;;;;5072324;28;20044;-81
2023/07/14 03:48:04;;;;;;;1.63;1.20;;;18.10;97.10;;;;;;5073147;28;20070;-81
2023/07/14 03:50:31;;;;;;;1.95;1.00;;;18.10;96.90;;;;;;5072561;28;20020;-81
2023/07/14 03:52:56;;;;;;;2.85;1.08;;;18.10;97.00;;;;;;5073879;28;20036;-82
2023/07/14 03:55:22;;;;;;;4.05;1.30;;;18.20;96.90;;;;;;5072134;28;20024;-81
2023/07/14 03:57:48;;;;;;;3.92;1.25;;;18.20;96.90;;;;;;5073086;28;20037;-81
2023/07/14 04:00:17;;;;;;;2.05;1.10;;;18.20;96.80;;;;;;5073749;28;20445;-81
2023/07/14 04:02:44;;;;;;;2.95;0.98;;;18.20;96.90;;;;;;5071614;28;20036;-82
2023/07/14 04:05:10;;;;;;;2.97;1.27;;;18.20;97.00;;;;;;5073453;28;20017;-82
2023/07/14 04:07:38;;;;;;;3.38;1.17;;;18.20;96.90;;;;;;5072198;28;20107;-82
2023/07/14 04:10:05;;;;;;;3.50;1.38;;;18.30;97.00;;;;;;5072860;28;20032;-82
2023/07/14 04:12:34;;;;;;;1.85;1.40;;;18.20;96.90;;;;;;5072324;28;20092;-81
2023/07/14 04:15:00;;;;;;;4.30;1.20;;;18.30;96.90;;;;;;5073624;28;20048;-82
2023/07/14 04:17:26;;;;;;;3.65;1.30;;;18.30;96.80;;;;;;5072215;28;20021;-82
2023/07/14 04:19:52;;;;;;;4.47;1.27;;;18.30;96.70;;;;;;5072732;28;20020;-82
2023/07/14 04:22:18;;;;;;;2.20;1.20;;;18.30;96.70;;;;;;5072506;28;20027;-82
2023/07/14 04:24:44;;;;;;;3.22;1.00;;;18.30;96.70;;;;;;5071573;28;20047;-81
2023/07/14 04:27:11;;;;;;;2.30;1.17;;;18.40;96.90;;;;;;5072436;28;20056;-82
2023/07/14 04:29:37;;;;;;;1.85;1.20;;;18.40;97.00;;;;;;5072139;28;20027;-81
2023/07/14 04:32:02;;;;;;;4.40;1.50;;;18.30;96.90;;;;;;5071953;28;20392;-82
2023/07/14 04:34:29;;;;;;;2.47;0.90;;;18.40;96.80;;;;;;5071857;28;20021;-82
2023/07/14 04:36:55;;;;;;;2.42;0.90;;;18.30;96.80;;;;;;5073393;28;20453;-81
2023/07/14 04:39:25;;;;;;;3.30;1.52;;;18.30;96.60;;;;;;5072459;28;20182;-81
2023/07/14 04:41:52;;;;;;;3.28;1.10;;;18.30;96.80;;;;;;5072094;28;20438;-81
2023/07/14 04:44:18;;;;;;;1.25;0.95;;;18.20;96.80;;;;;;5071956;28;20346;-80
2023/07/14 04:46:45;;;;;;;2.58;1.40;;;18.20;96.90;;;;;;5071487;28;20526;-81
2023/07/14 04:49:11;;;;;;;3.03;1.20;;;18.20;97.00;;;;;;5071421;28;20023;-81
2023/07/14 04:51:38;;;;;;;2.80;1.85;;;18.30;96.90;;;;;;5070720;28;20369;-81
2023/07/14 04:54:04;;;;;;;1.98;1.10;;;18.30;97.00;;;;;;5071693;28;20021;-81
2023/07/14 04:56:30;;;;;;;2.53;1.23;;;18.40;97.10;;;;;;5071226;28;20026;-80
2023/07/14 04:58:56;;;;;;;5.72;1.40;;;18.40;97.10;;;;;;5072079;28;20103;-81
2023/07/14 05:01:22;;;;;;;2.40;1.30;;;18.50;97.20;;;;;;5071569;28;20021;-82
2023/07/14 05:03:48;;;;;;;4.38;1.20;;;18.50;97.10;;;;;;5071112;28;20115;-81
2023/07/14 05:06:14;;;;;;;4.22;1.23;;;18.60;97.20;;;;;;5072413;28;20044;-81
2023/07/14 05:08:39;;;;;;;5.18;1.38;;;18.70;97.00;;;;;;5069985;28;20021;-81
2023/07/14 05:11:05;;;;;;;2.95;1.20;;;18.70;97.10;;;;;;5074980;28;20538;-81
2023/07/14 05:13:31;;;;;;;3.70;1.25;;;18.80;96.60;;;;;;5075717;28;20068;-82
2023/07/14 05:15:57;;;;;;;2.92;1.10;;;18.80;96.50;;;;;;5074757;28;20025;-81
2023/07/14 05:18:24;;;;;;;4.38;1.00;;;18.90;96.30;;;;;;5074980;28;20369;-81
2023/07/14 05:20:50;;;;;;;2.35;0.90;;;18.90;96.10;;;;;;5072873;28;20036;-82
2023/07/14 05:23:16;;;;;;;3.75;1.23;;;18.80;96.00;;;;;;5072195;28;20060;-82
2023/07/14 05:25:42;;;;;;;3.15;1.30;;;18.90;96.00;;;;;;5075548;28;20024;-82
2023/07/14 05:28:09;;;;;;;3.50;0.90;;;18.90;95.60;;;;;;5074805;28;20113;-81
2023/07/14 05:30:35;;;;;;;3.58;1.70;;;19.00;95.60;;;;;;5073999;28;20104;-82
2023/07/14 05:33:00;;;;;;;3.60;1.48;;;18.90;95.80;;;;;;5075429;28;20115;-82
2023/07/14 05:35:26;;;;;;;2.70;1.30;;;18.90;96.30;;;;;;5075203;28;20099;-82
2023/07/14 05:37:53;;;;;;;2.75;1.10;;;18.90;96.10;;;;;;5074000;28;20024;-82
2023/07/14 05:40:19;;;;;;;2.10;1.00;;;18.90;96.10;;;;;;5074080;28;20454;-81
2023/07/14 05:42:46;;;;;;;6.15;1.20;;;18.90;96.10;;;;;;5073345;28;20070;-81
2023/07/14 05:45:12;;;;;;;2.25;1.30;;;19.00;96.10;;;;;;5074026;28;20069;-82
2023/07/14 05:47:40;;;;;;;2.15;1.20;;;19.10;96.00;;;;;;5074360;28;20025;-82
2023/07/14 05:50:07;;;;;;;1.65;1.00;;;19.10;96.20;;;;;;5074707;28;20521;-80
2023/07/14 05:52:33;;;;;;;2.55;1.20;;;19.10;96.10;;;;;;5073440;28;20038;-80
2023/07/14 05:54:59;;;;;;;3.00;1.23;;;19.10;96.30;;;;;;5074883;28;20036;-80
2023/07/14 05:57:25;;;;;;;4.03;1.50;;;19.20;96.20;;;;;;5074731;28;20028;-79
2023/07/14 05:59:52;;;;;;;4.72;1.38;;;19.20;96.10;;;;;;5073371;28;20038;-79
2023/07/14 06:02:18;;;;;;;5.15;1.60;;;19.30;96.20;;;;;;5073402;28;20020;-79
2023/07/14 06:04:45;;;;;;;5.88;1.50;;;19.40;96.30;;;;;;5074119;28;20023;-79
2023/07/14 06:07:15;;;;;;;3.30;1.35;;;19.40;96.30;;;;;;5074685;28;20020;-80
2023/07/14 06:09:41;;;;;;;2.38;1.25;;;19.40;96.30;;;;;;5072484;28;20442;-79
2023/07/14 06:12:10;;;;;;;2.00;1.10;;;19.40;96.10;;;;;;5075300;28;20044;-78
2023/07/14 06:14:37;;;;;;;3.90;1.40;;;19.50;96.00;;;;;;5072285;28;20028;-83
2023/07/14 06:17:05;;;;;;;2.33;1.35;;;19.50;96.40;;;;;;5072859;28;20020;-82
2023/07/14 06:19:30;;;;;;;2.35;1.30;;;19.60;96.10;;;;;;5073766;28;20476;-84
2023/07/14 06:21:57;;;;;;;3.63;1.00;;;19.60;96.10;;;;;;5072410;28;20024;-82
2023/07/14 06:24:23;;;;;;;3.83;1.42;;;19.70;95.90;;;;;;5072640;28;20464;-83
2023/07/14 06:26:50;;;;;;;6.57;1.30;;;19.70;95.90;;;;;;5073046;28;20066;-85
2023/07/14 06:29:15;;;;;;;4.55;1.38;;;19.80;95.60;;;;;;5073621;28;20369;-84
2023/07/14 06:31:41;;;;;;;2.97;0.98;;;19.90;95.60;;;;;;5073026;28;20029;-82
2023/07/14 06:34:07;;;;;;;2.28;1.20;;;19.90;95.40;;;;;;5073874;28;20020;-84
2023/07/14 06:36:32;;;;;;;4.85;1.02;;;19.90;95.50;;;;;;5073320;28;20024;-83
2023/07/14 06:38:59;;;;;;;2.67;1.08;;;19.90;95.20;;;;;;5073833;28;20418;-83
2023/07/14 06:41:24;;;;;;;1.90;1.00;;;20.00;95.50;;;;;;5073061;28;20112;-85
2023/07/14 06:43:50;;;;;;;5.57;0.90;;;20.00;95.80;;;;;;5073007;28;20048;-84
2023/07/14 06:46:16;;;;;;;2.58;1.10;;;20.10;96.10;;;;;;5074106;28;20064;-86
2023/07/14 06:48:41;;;;;;;2.28;1.20;;;20.10;95.80;;;;;;5071975;28;20016;-83
2023/07/14 06:51:07;;;;;;;3.35;0.80;;;20.20;95.20;;;;;;5073575;28;20095;-82
2023/07/14 06:53:32;;;;;;;1.75;1.10;;;20.30;95.20;;;;;;5074117;28;20024;-87
2023/07/14 06:55:58;;;;;;;3.22;0.90;;;20.40;95.00;;;;;;5074808;28;20028;-84
2023/07/14 06:58:25;;;;;;;2.75;1.10;;;20.40;95.00;;;;;;5072911;28;20036;-84
2023/07/14 07:00:51;;;;;;;1.55;1.15;;;20.50;94.70;;;;;;5072086;28;20020;-84
2023/07/14 07:03:16;;;;;;;2.85;0.82;;;20.50;94.70;;;;;;5072560;28;20358;-85
2023/07/14 07:05:43;;;;;;;4.85;1.00;;;20.60;94.60;;;;;;5073311;28;20351;-84
2023/07/14 07:08:14;;;;;;;1.40;1.00;;;20.60;94.60;;;;;;5072600;28;20462;-82
2023/07/14 07:10:41;;;;;;;7.07;1.17;;;20.70;94.10;;;;;;5072513;28;20067;-83
2023/07/14 07:13:07;;;;;;;3.72;1.13;;;20.70;94.40;;;;;;5073301;28;20029;-86
2023/07/14 07:15:32;;;;;;;5.18;1.00;;;20.70;94.40;;;;;;5072141;28;20533;-81
2023/07/14 07:17:58;;;;;;;2.95;1.23;;;20.70;94.40;;;;;;5072767;28;20025;-81
2023/07/14 07:20:23;;;;;;;3.38;1.10;;;20.70;94.30;;;;;;5072423;28;20081;-81
2023/07/14 07:22:49;;;;;;;4.18;1.27;;;20.70;94.20;;;;;;5072065;28;20095;-82
2023/07/14 07:25:16;;;;;;;3.63;1.02;;;20.80;94.70;;;;;;5071296;28;20035;-83
2023/07/14 07:27:42;;;;;;;4.95;1.63;;;20.80;94.80;;;;;;5071661;28;20480;-84
2023/07/14 07:30:09;;;;;;;4.80;0.95;;;20.80;94.60;;;;;;5072701;28;20025;-83
2023/07/14 07:32:35;;;;;;;2.50;1.00;;;20.90;94.60;;;;;;5072239;28;20029;-85
2023/07/14 07:35:01;;;;;;;2.60;0.93;;;20.90;94.50;;;;;;5072636;28;20016;-85
2023/07/14 07:37:33;;;;;;;6.65;1.08;;;21.00;94.50;;;;;;5071930;28;20067;-81
2023/07/14 07:40:00;;;;;;;4.05;1.10;;;21.20;94.60;;;;;;5072432;28;20104;-82
2023/07/14 07:42:28;;;;;;;2.97;1.02;;;21.30;94.20;;;;;;5072084;28;20086;-81
2023/07/14 07:44:54;;;;;;;3.28;1.00;;;21.30;94.00;;;;;;5072094;28;20044;-84
2023/07/14 07:47:20;;;;;;;4.65;1.23;;;21.40;94.00;;;;;;5072258;28;20108;-86
2023/07/14 07:49:46;;;;;;;7.07;1.38;;;21.40;94.20;;;;;;5073227;28;20107;-85
2023/07/14 07:52:12;;;;;;;4.22;1.08;;;21.40;94.10;;;;;;5072494;28;20035;-85
2023/07/14 07:54:38;;;;;;;5.45;1.00;;;21.50;94.20;;;;;;5071865;28;20017;-86
2023/07/14 07:57:06;;;;;;;2.38;0.80;;;21.60;94.10;;;;;;5062653;28;20067;-85
2023/07/14 07:59:32;;;;;;;3.30;1.20;;;21.70;93.60;;;;;;5071730;28;20054;-82
2023/07/14 08:01:57;;;;;;;3.17;1.08;;;21.70;93.50;;;;;;5072421;28;20457;-81
2023/07/14 08:04:23;;;;;;;2.35;0.90;;;21.90;93.00;;;;;;5072350;28;20052;-83
2023/07/14 08:06:49;;;;;;;3.90;1.05;;;22.00;92.80;;;;;;5071946;28;20066;-81
2023/07/14 08:09:14;;;;;;;4.00;1.23;;;22.10;92.90;;;;;;5071990;28;20437;-82
2023/07/14 08:11:40;;;;;;;5.13;1.20;;;22.20;92.90;;;;;;5072152;28;20016;-79
2023/07/14 08:14:14;;;;;;;2.55;1.17;;;22.30;92.40;;;;;;5071862;28;20044;-81
2023/07/14 08:16:39;;;;;;;3.92;0.95;;;22.40;92.40;;;;;;5071321;28;20107;-80
2023/07/14 08:19:05;;;;;;;3.40;0.90;;;22.50;92.00;;;;;;5072140;28;20108;-81
2023/07/14 08:21:31;;;;;;;2.83;1.02;;;22.70;90.90;;;;;;5071897;28;20511;-81
2023/07/14 08:23:58;;;;;;;5.07;1.35;;;22.80;91.40;;;;;;5071904;28;20032;-81
2023/07/14 08:26:23;;;;;;;4.45;1.02;;;22.90;91.40;;;;;;5069857;28;20418;-79
2023/07/14 08:28:49;;;;;;;1.92;1.00;;;23.00;90.90;;;;;;5071069;28;20025;-80
2023/07/14 08:31:15;;;;;;;2.45;0.70;;;23.10;90.90;;;;;;5071223;28;20017;-81
2023/07/14 08:33:44;;;;;;;3.42;1.00;;;23.20;91.20;;;;;;5071924;28;20021;-81
2023/07/14 08:36:12;;;;;;;2.00;0.95;;;23.20;90.40;;;;;;5071717;28;20012;-81
2023/07/14 08:38:39;;;;;;;6.20;1.33;;;23.20;89.70;;;;;;5071530;28;20370;-81
2023/07/14 08:41:33;;;;;;;4.85;1.30;;;23.20;90.00;;;;;;5074894;28;20016;-80
2023/07/14 08:44:28;;;;;;;4.53;1.10;;;23.30;89.90;;;;;;5075132;28;20066;-81
2023/07/14 08:47:18;;;;;;;3.97;0.90;;;23.30;90.00;;;;;;5055289;28;20093;-81
2023/07/14 08:49:49;;;;;;;2.53;1.00;;;23.30;89.50;;;;;;5055594;28;20029;-80
2023/07/14 08:52:29;;;;;;;1.50;1.30;;;23.30;89.20;;;;;;5071326;28;20031;-80
2023/07/14 08:55:04;;;;;;;2.97;1.02;;;23.30;89.20;;;;;;5073321;28;20020;-80
2023/07/14 08:57:44;;;;;;;4.78;1.33;;;23.30;89.30;;;;;;5075647;28;20029;-81
2023/07/14 09:00:20;;;;;;;1.85;1.10;;;23.30;89.60;;;;;;5075690;28;20029;-80
2023/07/14 09:03:01;;;;;;;5.30;1.33;;;23.40;89.60;;;;;;5062253;28;20035;-78
2023/07/14 09:05:28;;;;;;;3.00;1.30;;;23.50;88.80;;;;;;5074920;28;20052;-82
2023/07/14 09:07:55;;;;;;;3.40;1.08;;;23.60;87.80;;;;;;5074563;28;20373;-82
2023/07/14 09:11:00;;;;;;;5.28;1.05;;;23.70;87.10;;;;;;5075607;28;20028;-81
2023/07/14 09:13:46;;;;;;;2.50;1.02;;;23.80;87.60;;;;;;5067987;28;20103;-79
2023/07/14 09:16:15;;;;;;;2.17;1.10;;;23.90;86.70;;;;;;5075187;28;20027;-79
2023/07/14 09:19:06;;;;;;;2.60;1.20;;;24.00;86.10;;;;;;5073963;28;20020;-83
2023/07/14 09:21:39;;;;;;;4.50;1.05;;;24.10;86.60;;;;;;5065588;28;20024;-81
2023/07/14 09:24:07;;;;;;;7.93;1.20;;;24.20;86.40;;;;;;5075317;28;20373;-79
2023/07/14 09:26:46;;;;;;;3.88;1.40;;;24.20;87.70;;;;;;5074755;28;20461;-81
2023/07/14 09:29:32;;;;;;;3.83;1.17;;;24.30;88.40;;;;;;5076230;28;20111;-82
2023/07/14 09:32:05;;;;;;;4.45;1.08;;;24.40;86.70;;;;;;5074252;28;20017;-80
2023/07/14 09:34:38;;;;;;;4.90;0.90;;;24.50;86.00;;;;;;5062873;28;20029;-80
2023/07/14 09:37:20;;;;;;;4.20;1.13;;;24.50;85.40;;;;;;5074862;28;20020;-81
2023/07/14 09:39:49;;;;;;;2.40;1.30;;;24.50;85.10;;;;;;5074010;28;20024;-81
2023/07/14 09:42:31;;;;;;;4.30;1.20;;;24.60;85.90;;;;;;5074781;28;20024;-81
2023/07/14 09:45:08;;;;;;;3.80;1.00;;;24.60;85.80;;;;;;5072630;28;20040;-84
2023/07/14 09:47:35;;;;;;;6.80;1.10;;;24.70;84.00;;;;;;5074802;28;20024;-83
2023/07/14 09:50:01;;;;;;;3.50;1.20;;;24.80;84.00;;;;;;5074747;28;20342;-82
2023/07/14 09:52:28;;;;;;;5.35;2.28;;;25.00;83.60;;;;;;5074016;28;20033;-80
2023/07/14 09:54:59;;;;;;;3.20;1.50;;;25.10;84.40;;;;;;5072767;28;20042;-79
2023/07/14 09:57:28;;;;;;;2.05;1.13;;;25.20;83.50;;;;;;5074170;28;20021;-80
2023/07/14 09:59:59;;;;;;;1.85;1.30;;;25.20;82.50;;;;;;5073567;28;20477;-84
2023/07/14 10:02:34;;;;;;;2.40;1.17;;;25.30;80.80;;;;;;5073702;28;20025;-82
2023/07/14 10:05:03;;;;;;;3.30;1.00;;;25.40;81.00;;;;;;5073629;28;20028;-80
2023/07/14 10:07:40;;;;;;;3.33;0.70;;;25.50;79.20;;;;;;5074153;28;20398;-84
2023/07/14 10:10:08;;;;;;;6.57;1.23;;;25.60;78.20;;;;;;5074251;28;20127;-81
2023/07/14 10:12:44;;;;;;;1.95;0.80;;;25.60;77.70;;;;;;5073632;28;20056;-80
2023/07/14 10:15:32;;;;;;;2.38;1.05;;;25.70;77.40;;;;;;5055889;28;20021;-86
2023/07/14 10:18:04;;;;;;;2.47;0.70;;;25.70;77.60;;;;;;5068229;28;20024;-81
2023/07/14 10:20:31;;;;;;;1.55;0.98;;;25.70;77.70;;;;;;5075389;28;20036;-84
2023/07/14 10:22:59;;;;;;;4.45;0.80;;;25.60;77.20;;;;;;5073276;28;20123;-84
2023/07/14 10:25:27;;;;;;;2.72;0.95;;;25.60;77.40;;;;;;5074638;28;20503;-85
2023/07/14 10:28:03;;;;;;;2.72;0.95;;;25.50;76.70;;;;;;5072701;28;20082;-87
2023/07/14 10:30:42;;;;;;;1.65;0.80;;;25.40;75.20;;;;;;5072437;28;20040;-82
2023/07/14 10:33:34;;;;;;;1.80;1.00;;;25.40;73.40;;;;;;5074082;28;20020;-80
2023/07/14 10:36:10;;;;;;;2.85;1.00;;;25.50;73.90;;;;;;5056755;28;20108;-81
2023/07/14 10:38:46;;;;;;;2.42;0.93;;;25.60;73.10;;;;;;5074061;28;20369;-81
2023/07/14 10:41:13;;;;;;;1.85;0.85;;;25.70;70.90;;;;;;5073491;28;20866;-80
2023/07/14 10:44:05;;;;;;;2.92;0.98;;;25.70;71.80;;;;;;5073735;28;20021;-82
2023/07/14 10:46:42;;;;;;;2.90;1.17;;;25.90;72.30;;;;;;5074341;28;20045;-82
2023/07/14 10:49:34;;;;;;;1.50;0.85;;;26.00;70.20;;;;;;5074770;28;20025;-83
2023/07/14 10:52:11;;;;;;;2.05;0.88;;;26.10;69.00;;;;;;5073059;28;20039;-83
2023/07/14 10:54:42;;;;;;;3.67;0.80;;;26.20;68.20;;;;;;5073254;28;20032;-83
2023/07/14 10:57:42;;;;;;;3.92;1.17;;;26.30;68.00;;;;;;5061343;28;20043;-83
2023/07/14 11:00:19;;;;;;;3.80;1.02;;;26.30;67.30;;;;;;5075297;28;20042;-83
2023/07/14 11:03:11;;;;;;;5.15;0.82;;;26.30;66.90;;;;;;5075037;28;20401;-82
2023/07/14 11:05:38;;;;;;;1.98;0.75;;;26.40;67.00;;;;;;5073511;28;20032;-80
2023/07/14 11:08:08;;;;;;;3.35;0.98;;;26.40;66.20;;;;;;5073979;28;20039;-81
2023/07/14 11:10:48;;;;;;;3.22;0.80;;;26.40;66.00;;;;;;5072409;28;20364;-79
2023/07/14 11:13:39;;;;;;;4.43;0.70;;;26.50;66.90;;;;;;5071991;28;20111;-81
2023/07/14 11:16:11;;;;;;;2.90;0.90;;;26.50;66.20;;;;;;5073337;28;20364;-81
2023/07/14 11:18:59;;;;;;;3.90;0.90;;;26.60;66.70;;;;;;5072696;28;20031;-80
2023/07/14 11:21:39;;;;;;;2.67;0.82;;;26.70;66.50;;;;;;5054164;28;20380;-80
2023/07/14 11:24:06;;;;;;;3.85;0.80;;;26.70;68.10;;;;;;5073229;28;20449;-83
2023/07/14 11:26:41;;;;;;;2.55;0.70;;;26.80;67.20;;;;;;5073020;28;20032;-79
2023/07/14 11:29:19;;;;;;;3.05;0.80;;;26.90;66.20;;;;;;5072895;28;20124;-80
2023/07/14 11:32:16;;;;;;;2.30;0.80;;;27.00;66.60;;;;;;5053519;28;20035;-80
2023/07/14 11:34:59;;;;;;;2.28;0.70;;;27.10;67.20;;;;;;5071720;28;20040;-80
2023/07/14 11:37:33;;;;;;;2.35;1.05;;;27.10;66.70;;;;;;5061764;28;20457;-81
2023/07/14 11:40:00;;;;;;;2.65;1.23;;;27.10;64.40;;;;;;5073646;28;20027;-82
2023/07/14 11:42:33;;;;;;;3.13;1.00;;;27.20;63.90;;;;;;5072409;28;20028;-82
2023/07/14 11:45:03;;;;;;;1.25;0.80;;;27.10;63.50;;;;;;5072675;28;20041;-82
2023/07/14 11:47:32;;;;;;;1.20;0.93;;;27.20;62.80;;;;;;5073861;28;20450;-82
2023/07/14 11:50:01;;;;;;;3.95;0.82;;;27.20;62.50;;;;;;5072741;28;20265;-80
2023/07/14 11:52:29;;;;;;;2.17;0.70;;;27.20;63.60;;;;;;5071693;28;20059;-80
2023/07/14 11:55:19;;;;;;;2.63;1.13;;;27.20;63.70;;;;;;5072519;28;20241;-81
2023/07/14 11:57:51;;;;;;;2.92;1.23;;;27.20;62.80;;;;;;5068470;28;20036;-81
2023/07/14 12:00:24;;;;;;;1.95;0.90;;;27.30;62.60;;;;;;5070847;28;20028;-80
2023/07/14 12:03:01;;;;;;;3.10;0.80;;;27.30;61.00;;;;;;5067890;28;20055;-79
2023/07/14 12:05:27;;;;;;;2.75;0.98;;;27.30;62.00;;;;;;5071811;28;20028;-78
2023/07/14 12:08:04;;;;;;;2.00;1.15;;;27.30;62.20;;;;;;5071038;28;20492;-78
2023/07/14 12:10:40;;;;;;;1.65;0.80;;;27.40;63.00;;;;;;5071958;28;20048;-79
2023/07/14 12:13:27;;;;;;;1.58;0.80;;;27.60;64.80;;;;;;5072138;28;20063;-80
2023/07/14 12:15:55;;;;;;;3.17;1.10;;;27.50;63.00;;;;;;5070525;28;20458;-81
2023/07/14 12:18:33;;;;;;;3.60;0.85;;;27.60;63.10;;;;;;5071729;28;20020;-80
2023/07/14 12:21:14;;;;;;;2.78;0.80;;;27.60;62.00;;;;;;5070274;28;20024;-81
2023/07/14 12:23:40;;;;;;;4.70;1.30;;;27.60;61.90;;;;;;5070024;28;20372;-79
2023/07/14 12:26:16;;;;;;;3.13;0.98;;;27.60;63.30;;;;;;5071235;28;20111;-81
2023/07/14 12:28:41;;;;;;;3.55;1.10;;;27.60;63.70;;;;;;5072387;28;20047;-81
2023/07/14 12:31:16;;;;;;;2.05;0.77;;;27.70;62.20;;;;;;5072533;28;20457;-84
2023/07/14 12:33:41;;;;;;;2.05;0.85;;;27.70;61.30;;;;;;5071723;28;20029;-82
2023/07/14 12:36:20;;;;;;;1.63;0.70;;;27.90;61.20;;;;;;5072220;28;20027;-83
2023/07/14 12:38:51;;;;;;;1.63;0.80;;;28.00;61.00;;;;;;5052149;28;20119;-82
2023/07/14 12:41:17;;;;;;;1.85;0.80;;;28.20;61.30;;;;;;5055437;28;20028;-85
2023/07/14 12:43:53;;;;;;;2.88;0.93;;;28.40;59.30;;;;;;5071259;28;20106;-81
2023/07/14 12:46:25;;;;;;;1.40;0.95;;;28.50;59.10;;;;;;5070451;28;20043;-80
2023/07/14 12:49:02;;;;;;;4.25;0.95;;;28.70;58.60;;;;;;5067886;28;20311;-80
2023/07/14 12:51:29;;;;;;;1.25;0.80;;;29.00;58.40;;;;;;5071305;28;20024;-79
2023/07/14 12:54:04;;;;;;;1.70;0.70;;;29.00;55.40;;;;;;5070013;28;20040;-79
2023/07/14 12:56:31;;;;;;;2.80;1.23;;;29.10;57.20;;;;;;5070928;28;20085;-79
2023/07/14 12:59:02;;;;;;;5.18;0.82;;;29.20;55.80;;;;;;5071994;28;20477;-83
2023/07/14 13:01:28;;;;;;;2.50;0.73;;;29.20;55.90;;;;;;5071857;28;20369;-80
2023/07/14 13:03:53;;;;;;;1.58;0.80;;;29.20;55.30;;;;;;5070774;28;20558;-83